createdAt,value
2022-09-23T00:02:07.281Z,8.60
2022-09-23T00:04:35.480Z,8.59
2022-09-23T00:07:03.653Z,8.56
2022-09-23T00:09:31.724Z,8.53
2022-09-23T00:12:00.822Z,8.50
2022-09-23T00:14:28.886Z,8.46
2022-09-23T00:16:57.244Z,8.42
2022-09-23T00:19:25.336Z,8.39
2022-09-23T00:21:53.307Z,8.37
2022-09-23T00:24:21.282Z,8.34
2022-09-23T00:26:49.456Z,8.32
2022-09-23T00:29:17.426Z,8.30
2022-09-23T00:31:45.616Z,8.27
2022-09-23T00:34:13.669Z,8.22
2022-09-23T00:36:42.970Z,8.18
2022-09-23T00:39:10.932Z,8.13
2022-09-23T00:41:39.422Z,8.10
2022-09-23T00:44:44.619Z,8.08
2022-09-23T00:47:27.584Z,8.05
2022-09-23T00:50:26.066Z,8.04
2022-09-23T00:52:57.111Z,8.03
2022-09-23T00:55:39.620Z,8.04
2022-09-23T00:58:11.165Z,8.04
2022-09-23T01:00:39.245Z,8.04
2022-09-23T01:03:07.606Z,8.06
2022-09-23T01:05:36.722Z,8.07
2022-09-23T01:08:05.094Z,8.09
2022-09-23T01:10:58.060Z,8.11
2022-09-23T01:13:44.357Z,8.13
2022-09-23T01:16:27.213Z,8.17
2022-09-23T01:19:13.363Z,8.21
2022-09-23T01:22:03.868Z,8.24
2022-09-23T01:24:49.210Z,8.27
2022-09-23T01:27:29.188Z,8.32
2022-09-23T01:30:16.925Z,8.38
2022-09-23T01:33:11.418Z,8.44
2022-09-23T01:35:56.075Z,8.48
2022-09-23T01:38:30.091Z,8.54
2022-09-23T01:41:13.010Z,8.60
2022-09-23T01:43:46.916Z,8.65
2022-09-23T01:46:28.196Z,8.69
2022-09-23T01:49:22.275Z,8.72
2022-09-23T01:51:58.452Z,8.77
2022-09-23T01:54:38.971Z,8.80
2022-09-23T01:57:18.960Z,8.81
2022-09-23T01:59:56.041Z,8.79
2022-09-23T02:02:29.856Z,8.78
2022-09-23T02:05:02.835Z,8.77
2022-09-23T02:07:38.096Z,8.77
2022-09-23T02:10:28.880Z,8.77
2022-09-23T02:13:05.538Z,8.75
2022-09-23T02:15:38.645Z,8.74
2022-09-23T02:18:15.420Z,8.74
2022-09-23T02:20:44.002Z,8.73
2022-09-23T02:23:17.451Z,8.73
2022-09-23T02:26:03.598Z,8.72
2022-09-23T02:28:43.650Z,8.71
2022-09-23T02:31:38.486Z,8.70
2022-09-23T02:34:15.838Z,8.68
2022-09-23T02:36:50.305Z,8.68
2022-09-23T02:39:21.710Z,8.65
2022-09-23T02:42:02.575Z,8.65
2022-09-23T02:44:33.086Z,8.63
2022-09-23T02:47:01.237Z,8.63
2022-09-23T02:49:31.299Z,8.61
2022-09-23T02:52:07.717Z,8.61
2022-09-23T02:54:37.585Z,8.59
2022-09-23T02:57:08.410Z,8.58
2022-09-23T02:59:37.410Z,8.57
2022-09-23T03:02:23.554Z,8.58
2022-09-23T03:05:11.472Z,8.57
2022-09-23T03:07:57.435Z,8.56
2022-09-23T03:10:36.674Z,8.54
2022-09-23T03:13:05.045Z,8.54
2022-09-23T03:15:44.490Z,8.55
2022-09-23T03:18:40.475Z,8.56
2022-09-23T03:21:21.089Z,8.57
2022-09-23T03:23:50.561Z,8.58
2022-09-23T03:26:27.537Z,8.61
2022-09-23T03:28:56.351Z,8.64
2022-09-23T03:31:25.061Z,8.67
2022-09-23T03:33:59.077Z,8.71
2022-09-23T03:36:52.215Z,8.74
2022-09-23T03:39:41.070Z,8.78
2022-09-23T03:42:16.925Z,8.82
2022-09-23T03:44:46.978Z,8.86
2022-09-23T03:47:16.598Z,8.90
2022-09-23T03:49:48.524Z,8.94
2022-09-23T03:52:18.351Z,8.95
2022-09-23T03:54:46.868Z,8.96
2022-09-23T03:57:15.291Z,8.97
2022-09-23T03:59:43.669Z,9.00
2022-09-23T04:02:12.097Z,9.04
2022-09-23T04:04:41.556Z,9.06
2022-09-23T04:07:11.119Z,9.06
2022-09-23T04:09:39.951Z,9.05
2022-09-23T04:12:08.428Z,9.06
2022-09-23T04:14:36.812Z,9.09
2022-09-23T04:17:04.885Z,9.13
2022-09-23T04:19:32.956Z,9.16
2022-09-23T04:22:01.129Z,9.21
2022-09-23T04:24:29.364Z,9.22
2022-09-23T04:26:57.780Z,9.21
2022-09-23T04:29:26.677Z,9.19
2022-09-23T04:31:54.923Z,9.19
2022-09-23T04:34:23.026Z,9.22
2022-09-23T04:36:51.095Z,9.25
2022-09-23T04:39:19.584Z,9.26
2022-09-23T04:41:47.550Z,9.26
2022-09-23T04:44:15.719Z,9.23
2022-09-23T04:46:48.234Z,9.20
2022-09-23T04:49:16.911Z,9.18
2022-09-23T04:51:46.296Z,9.16
2022-09-23T04:54:15.185Z,9.13
2022-09-23T04:56:43.159Z,9.08
2022-09-23T04:59:11.522Z,9.03
2022-09-23T05:01:40.274Z,9.00
2022-09-23T05:04:13.902Z,8.96
2022-09-23T05:06:45.299Z,8.93
2022-09-23T05:09:17.537Z,8.89
2022-09-23T05:11:45.722Z,8.83
2022-09-23T05:14:14.582Z,8.79
2022-09-23T05:16:42.615Z,8.73
2022-09-23T05:19:11.969Z,8.67
2022-09-23T05:21:40.449Z,8.64
2022-09-23T05:24:09.040Z,8.63
2022-09-23T05:26:37.104Z,8.65
2022-09-23T05:29:05.045Z,8.66
2022-09-23T05:31:33.084Z,8.67
2022-09-23T05:34:04.795Z,8.73
2022-09-23T05:36:38.207Z,8.79
2022-09-23T05:39:07.963Z,8.83
2022-09-23T05:41:36.704Z,8.91
2022-09-23T05:44:05.181Z,8.95
2022-09-23T05:46:33.760Z,8.94
2022-09-23T05:49:03.666Z,8.96
2022-09-23T05:51:34.442Z,8.97
2022-09-23T05:54:04.350Z,8.98
2022-09-23T05:56:34.251Z,9.02
2022-09-23T05:59:03.834Z,9.03
2022-09-23T06:01:35.525Z,9.03
2022-09-23T06:04:06.393Z,9.06
2022-09-23T06:06:38.049Z,9.10
2022-09-23T06:09:10.136Z,9.13
2022-09-23T06:11:38.454Z,9.12
2022-09-23T06:14:06.608Z,9.19
2022-09-23T06:16:36.070Z,9.25
2022-09-23T06:19:07.670Z,9.28
2022-09-23T06:21:38.454Z,9.35
2022-09-23T06:24:09.441Z,9.39
2022-09-23T06:26:38.856Z,9.42
2022-09-23T06:29:14.685Z,9.43
2022-09-23T06:31:43.537Z,9.48
2022-09-23T06:34:14.376Z,9.53
2022-09-23T06:36:45.836Z,9.58
2022-09-23T06:39:15.724Z,9.58
2022-09-23T06:41:45.545Z,9.60
2022-09-23T06:44:15.530Z,9.59
2022-09-23T06:46:44.332Z,9.59
2022-09-23T06:49:13.514Z,9.56
2022-09-23T06:51:41.705Z,9.56
2022-09-23T06:54:11.293Z,9.56
2022-09-23T06:56:40.269Z,9.52
2022-09-23T06:59:11.259Z,9.51
2022-09-23T07:01:39.419Z,9.53
2022-09-23T07:04:10.320Z,9.54
2022-09-23T07:06:39.145Z,9.60
2022-09-23T07:09:08.693Z,9.63
2022-09-23T07:11:37.718Z,9.65
2022-09-23T07:14:06.232Z,9.68
2022-09-23T07:16:34.294Z,9.67
2022-09-23T07:19:02.751Z,9.70
2022-09-23T07:21:31.455Z,9.75
2022-09-23T07:23:59.674Z,9.80
2022-09-23T07:26:29.136Z,9.84
2022-09-23T07:29:04.965Z,9.90
2022-09-23T07:31:39.728Z,9.95
2022-09-23T07:34:11.831Z,9.99
2022-09-23T07:36:43.540Z,10.02
2022-09-23T07:39:13.046Z,9.97
2022-09-23T07:41:44.615Z,9.96
2022-09-23T07:44:12.891Z,9.96
2022-09-23T07:46:41.430Z,9.97
2022-09-23T07:49:10.819Z,9.95
2022-09-23T07:51:41.094Z,9.97
2022-09-23T07:54:13.582Z,10.00
2022-09-23T07:56:43.178Z,10.01
2022-09-23T07:59:15.516Z,10.06
2022-09-23T08:01:46.436Z,10.15
2022-09-23T08:04:21.421Z,10.19
2022-09-23T08:07:02.134Z,10.29
2022-09-23T08:09:41.929Z,10.45
2022-09-23T08:12:16.050Z,10.60
2022-09-23T08:14:44.421Z,10.71
2022-09-23T08:17:13.245Z,10.80
2022-09-23T08:19:41.279Z,10.85
2022-09-23T08:22:09.461Z,10.94
2022-09-23T08:24:37.424Z,11.02
2022-09-23T08:27:06.223Z,11.14
2022-09-23T08:29:34.998Z,11.23
2022-09-23T08:32:02.979Z,11.29
2022-09-23T08:34:31.353Z,11.34
2022-09-23T08:36:59.628Z,11.39
2022-09-23T08:39:27.600Z,11.46
2022-09-23T08:42:17.894Z,11.55
2022-09-23T08:44:53.436Z,11.61
2022-09-23T08:47:27.995Z,11.66
2022-09-23T08:50:02.945Z,11.63
2022-09-23T08:52:43.150Z,11.67
2022-09-23T08:55:16.140Z,11.75
2022-09-23T08:58:23.853Z,11.86
2022-09-23T09:01:21.112Z,12.03
2022-09-23T09:03:55.103Z,12.14
2022-09-23T09:06:41.884Z,12.15
2022-09-23T09:09:37.874Z,12.19
2022-09-23T09:12:35.985Z,12.27
2022-09-23T09:15:08.039Z,12.35
2022-09-23T09:17:48.655Z,12.44
2022-09-23T09:20:28.810Z,12.54
2022-09-23T09:23:00.156Z,12.65
2022-09-23T09:25:49.733Z,12.77
2022-09-23T09:28:26.710Z,13.01
2022-09-23T09:31:00.052Z,13.18
2022-09-23T09:33:37.104Z,13.32
2022-09-23T09:36:36.458Z,13.46
2022-09-23T09:39:05.246Z,13.63
2022-09-23T09:41:33.459Z,13.75
2022-09-23T09:44:10.277Z,13.82
2022-09-23T09:46:54.775Z,13.91
2022-09-23T09:49:28.168Z,13.98
2022-09-23T09:52:38.915Z,14.06
2022-09-23T09:55:12.822Z,14.01
2022-09-23T09:57:44.257Z,14.04
2022-09-23T10:00:25.549Z,14.17
2022-09-23T10:03:01.607Z,14.35
2022-09-23T10:05:47.182Z,14.44
2022-09-23T10:08:35.126Z,14.45
2022-09-23T10:11:15.386Z,14.48
2022-09-23T10:14:06.797Z,14.53
2022-09-23T10:16:35.221Z,14.53
2022-09-23T10:19:11.648Z,14.50
2022-09-23T10:21:42.478Z,14.35
2022-09-23T10:24:23.276Z,14.17
2022-09-23T10:27:00.439Z,14.04
2022-09-23T10:29:33.990Z,13.96
2022-09-23T10:32:30.168Z,14.10
2022-09-23T10:35:06.942Z,14.53
2022-09-23T10:37:39.624Z,15.04
2022-09-23T10:40:35.361Z,15.53
2022-09-23T10:43:48.578Z,15.95
2022-09-23T10:46:46.250Z,16.33
2022-09-23T10:49:45.197Z,16.61
2022-09-23T10:52:36.477Z,16.63
2022-09-23T10:55:23.086Z,16.65
2022-09-23T10:58:00.767Z,16.65
2022-09-23T11:00:39.319Z,16.54
2022-09-23T11:03:17.640Z,16.38
2022-09-23T11:06:00.937Z,16.20
2022-09-23T11:08:59.437Z,16.03
2022-09-23T11:11:49.312Z,15.85
2022-09-23T11:14:26.161Z,15.69
2022-09-23T11:17:14.967Z,15.59
2022-09-23T11:19:45.548Z,15.63
2022-09-23T11:22:41.082Z,15.71
2022-09-23T11:25:46.806Z,15.70
2022-09-23T11:28:33.180Z,15.61
2022-09-23T11:31:21.442Z,15.63
2022-09-23T11:34:12.602Z,15.81
2022-09-23T11:36:49.122Z,16.13
2022-09-23T11:39:29.539Z,16.52
2022-09-23T11:42:01.814Z,16.95
2022-09-23T11:44:36.795Z,17.46
2022-09-23T11:47:11.905Z,18.04
2022-09-23T11:49:53.978Z,18.40
2022-09-23T11:52:24.927Z,18.50
2022-09-23T11:54:58.749Z,18.45
2022-09-23T11:57:49.002Z,18.37
2022-09-23T12:00:28.251Z,18.20
2022-09-23T12:03:09.538Z,17.96
2022-09-23T12:06:00.215Z,17.65
2022-09-23T12:08:33.699Z,17.41
2022-09-23T12:11:10.618Z,17.17
2022-09-23T12:14:12.271Z,16.90
2022-09-23T12:16:46.142Z,16.70
2022-09-23T12:19:38.903Z,16.59
2022-09-23T12:22:50.730Z,16.68
2022-09-23T12:25:33.547Z,16.80
2022-09-23T12:28:11.868Z,16.77
2022-09-23T12:30:41.473Z,16.63
2022-09-23T12:33:28.538Z,16.48
2022-09-23T12:36:12.336Z,16.33
2022-09-23T12:38:46.651Z,16.20
2022-09-23T12:41:26.707Z,16.08
2022-09-23T12:44:13.636Z,15.98
2022-09-23T12:46:46.199Z,15.87
2022-09-23T12:49:29.218Z,15.73
2022-09-23T12:52:12.338Z,15.64
2022-09-23T12:54:42.048Z,15.56
2022-09-23T12:57:11.459Z,15.49
2022-09-23T12:59:51.335Z,15.42
2022-09-23T13:02:25.106Z,15.36
2022-09-23T13:05:36.357Z,15.29
2022-09-23T13:08:25.029Z,15.17
2022-09-23T13:10:58.135Z,15.06
2022-09-23T13:13:41.836Z,14.95
2022-09-23T13:16:33.263Z,14.83
2022-09-23T13:19:04.642Z,14.67
2022-09-23T13:21:42.451Z,14.34
2022-09-23T13:24:13.202Z,13.81
2022-09-23T13:26:45.869Z,13.57
2022-09-23T13:29:23.903Z,13.34
2022-09-23T13:31:52.705Z,13.15
2022-09-23T13:34:24.799Z,13.07
2022-09-23T13:36:53.709Z,13.02
2022-09-23T13:39:29.202Z,13.06
2022-09-23T13:42:04.716Z,13.09
2022-09-23T13:44:32.884Z,13.02
2022-09-23T13:47:03.428Z,12.99
2022-09-23T13:49:36.498Z,13.03
2022-09-23T13:52:04.576Z,13.12
2022-09-23T13:54:50.243Z,13.21
2022-09-23T13:57:44.679Z,13.31
2022-09-23T14:00:21.388Z,13.39
2022-09-23T14:02:49.491Z,13.45
2022-09-23T14:05:26.395Z,13.49
2022-09-23T14:07:56.414Z,13.52
2022-09-23T14:10:27.868Z,13.54
2022-09-23T14:12:57.043Z,13.56
2022-09-23T14:15:25.493Z,13.57
2022-09-23T14:17:59.670Z,13.58
2022-09-23T14:20:27.814Z,13.59
2022-09-23T14:23:14.230Z,13.60
2022-09-23T14:25:46.278Z,13.61
2022-09-23T14:28:17.082Z,13.60
2022-09-23T14:30:48.256Z,13.61
2022-09-23T14:33:32.236Z,13.61
2022-09-23T14:36:29.255Z,13.61
2022-09-23T14:39:12.480Z,13.60
2022-09-23T14:41:44.443Z,13.60
2022-09-23T14:44:22.934Z,13.60
2022-09-23T14:47:00.149Z,13.57
2022-09-23T14:49:28.430Z,13.54
2022-09-23T14:52:05.916Z,13.48
2022-09-23T14:54:39.812Z,13.44
2022-09-23T14:57:23.507Z,13.40
2022-09-23T15:00:00.421Z,13.38
2022-09-23T15:02:37.837Z,13.36
2022-09-23T15:05:13.040Z,13.33
2022-09-23T15:07:41.975Z,13.32
2022-09-23T15:10:20.019Z,13.35
2022-09-23T15:12:50.528Z,13.38
2022-09-23T15:15:19.685Z,13.39
2022-09-23T15:17:48.082Z,13.41
2022-09-23T15:20:16.054Z,13.43
2022-09-23T15:22:50.078Z,13.45
2022-09-23T15:25:41.383Z,13.44
2022-09-23T15:28:09.345Z,13.42
2022-09-23T15:30:38.544Z,13.38
2022-09-23T15:33:07.132Z,13.31
2022-09-23T15:35:36.624Z,13.24
2022-09-23T15:38:04.730Z,13.16
2022-09-23T15:40:35.281Z,13.04
2022-09-23T15:43:21.193Z,12.96
2022-09-23T15:45:53.312Z,12.89
2022-09-23T15:48:27.849Z,12.83
2022-09-23T15:50:56.099Z,12.78
2022-09-23T15:53:27.149Z,12.74
2022-09-23T15:55:55.207Z,12.66
2022-09-23T15:58:25.248Z,12.57
2022-09-23T16:00:57.470Z,12.45
2022-09-23T16:03:30.082Z,12.35
2022-09-23T16:06:02.351Z,12.25
2022-09-23T16:08:33.193Z,12.17
2022-09-23T16:11:01.663Z,12.11
2022-09-23T16:13:29.844Z,12.04
2022-09-23T16:15:57.881Z,11.99
2022-09-23T16:18:26.187Z,11.95
2022-09-23T16:20:54.786Z,11.92
2022-09-23T16:23:34.824Z,11.87
2022-09-23T16:26:14.037Z,11.82
2022-09-23T16:28:43.263Z,11.79
2022-09-23T16:31:12.130Z,11.77
2022-09-23T16:33:40.530Z,11.78
2022-09-23T16:36:22.121Z,11.79
2022-09-23T16:38:50.704Z,11.79
2022-09-23T16:41:18.779Z,11.78
2022-09-23T16:43:47.253Z,11.75
2022-09-23T16:46:17.329Z,11.74
2022-09-23T16:48:52.133Z,11.72
2022-09-23T16:51:23.914Z,11.72
2022-09-23T16:53:55.557Z,11.71
2022-09-23T16:56:28.862Z,11.67
2022-09-23T16:58:57.400Z,11.68
2022-09-23T17:01:46.109Z,11.71
2022-09-23T17:04:17.089Z,11.68
2022-09-23T17:06:50.633Z,11.70
2022-09-23T17:09:20.703Z,11.69
2022-09-23T17:12:15.718Z,11.67
2022-09-23T17:14:43.991Z,11.62
2022-09-23T17:17:11.961Z,11.60
2022-09-23T17:19:41.642Z,11.57
2022-09-23T17:22:10.257Z,11.56
2022-09-23T17:24:38.327Z,11.56
2022-09-23T17:27:06.421Z,11.54
2022-09-23T17:29:34.679Z,11.51
2022-09-23T17:32:05.201Z,11.47
2022-09-23T17:34:33.588Z,11.42
2022-09-23T17:37:02.623Z,11.39
2022-09-23T17:39:31.783Z,11.33
2022-09-23T17:41:59.845Z,11.29
2022-09-23T17:44:27.811Z,11.26
2022-09-23T17:46:56.093Z,11.21
2022-09-23T17:49:24.581Z,11.15
2022-09-23T17:51:52.685Z,11.11
2022-09-23T17:54:20.721Z,11.07
2022-09-23T17:56:48.685Z,11.02
2022-09-23T17:59:16.915Z,10.98
2022-09-23T18:01:44.975Z,10.93
2022-09-23T18:04:13.215Z,10.89
2022-09-23T18:06:41.381Z,10.82
2022-09-23T18:09:10.457Z,10.77
2022-09-23T18:11:40.458Z,10.71
2022-09-23T18:14:15.542Z,10.65
2022-09-23T18:16:46.229Z,10.61
2022-09-23T18:19:19.900Z,10.58
2022-09-23T18:21:54.549Z,10.54
2022-09-23T18:24:38.927Z,10.49
2022-09-23T18:27:07.638Z,10.45
2022-09-23T18:29:36.335Z,10.43
2022-09-23T18:32:04.483Z,10.41
2022-09-23T18:34:33.283Z,10.40
2022-09-23T18:37:01.253Z,10.39
2022-09-23T18:39:29.321Z,10.38
2022-09-23T18:41:57.292Z,10.38
2022-09-23T18:44:25.672Z,10.40
2022-09-23T18:46:53.742Z,10.43
2022-09-23T18:49:40.460Z,10.46
2022-09-23T18:52:08.525Z,10.49
2022-09-23T18:54:36.600Z,10.47
2022-09-23T18:57:05.383Z,10.45
2022-09-23T18:59:33.621Z,10.41
2022-09-23T19:02:02.623Z,10.39
2022-09-23T19:04:30.939Z,10.38
2022-09-23T19:06:59.106Z,10.36
2022-09-23T19:09:27.286Z,10.34
2022-09-23T19:11:55.352Z,10.32
2022-09-23T19:14:23.697Z,10.32
2022-09-23T19:16:52.180Z,10.33
2022-09-23T19:19:20.186Z,10.36
2022-09-23T19:21:48.258Z,10.39
2022-09-23T19:24:20.173Z,10.41
2022-09-23T19:26:49.010Z,10.41
2022-09-23T19:29:22.087Z,10.37
2022-09-23T19:31:51.222Z,10.29
2022-09-23T19:34:26.067Z,10.23
2022-09-23T19:36:57.460Z,10.15
2022-09-23T19:39:30.599Z,10.05
2022-09-23T19:41:59.247Z,9.96
2022-09-23T19:44:27.938Z,9.87
2022-09-23T19:46:57.438Z,9.76
2022-09-23T19:49:25.865Z,9.68
2022-09-23T19:51:56.073Z,9.60
2022-09-23T19:54:27.704Z,9.51
2022-09-23T19:56:55.976Z,9.44
2022-09-23T19:59:26.621Z,9.37
2022-09-23T20:01:55.031Z,9.31
2022-09-23T20:04:23.260Z,9.26
2022-09-23T20:06:51.228Z,9.19
2022-09-23T20:09:19.301Z,9.15
2022-09-23T20:11:47.904Z,9.11
2022-09-23T20:14:18.004Z,9.06
2022-09-23T20:16:46.487Z,9.03
2022-09-23T20:19:15.333Z,9.00
2022-09-23T20:21:43.224Z,8.98
2022-09-23T20:24:12.553Z,8.95
2022-09-23T20:26:59.251Z,8.93
2022-09-23T20:29:27.228Z,8.92
2022-09-23T20:31:56.836Z,8.91
2022-09-23T20:34:24.906Z,8.91
2022-09-23T20:36:52.838Z,8.91
2022-09-23T20:39:21.145Z,8.92
2022-09-23T20:41:49.935Z,8.96
2022-09-23T20:44:18.448Z,8.98
2022-09-23T20:46:48.931Z,9.02
2022-09-23T20:49:18.147Z,9.05
2022-09-23T20:51:50.266Z,9.07
2022-09-23T20:54:19.345Z,9.11
2022-09-23T20:56:48.024Z,9.14
2022-09-23T20:59:18.188Z,9.16
2022-09-23T21:01:47.904Z,9.18
2022-09-23T21:04:16.718Z,9.20
2022-09-23T21:06:45.024Z,9.22
2022-09-23T21:09:13.062Z,9.24
2022-09-23T21:11:41.235Z,9.26
2022-09-23T21:14:09.689Z,9.28
2022-09-23T21:16:38.344Z,9.28
2022-09-23T21:19:08.620Z,9.26
2022-09-23T21:21:36.714Z,9.26
2022-09-23T21:24:31.371Z,9.24
2022-09-23T21:26:53.430Z,9.19
2022-09-23T21:29:21.926Z,9.16
2022-09-23T21:31:50.219Z,9.14
2022-09-23T21:34:19.588Z,9.13
2022-09-23T21:36:48.483Z,9.10
2022-09-23T21:39:16.763Z,9.07
2022-09-23T21:41:45.049Z,9.05
2022-09-23T21:44:12.994Z,9.01
2022-09-23T21:46:41.071Z,8.96
2022-09-23T21:49:09.317Z,8.91
2022-09-23T21:51:41.265Z,8.86
2022-09-23T21:54:15.971Z,8.80
2022-09-23T21:56:44.850Z,8.72
2022-09-23T21:59:13.049Z,8.65
2022-09-23T22:01:44.625Z,8.60
2022-09-23T22:04:18.799Z,8.55
2022-09-23T22:06:49.041Z,8.52
2022-09-23T22:09:20.569Z,8.50
2022-09-23T22:12:07.362Z,8.47
2022-09-23T22:14:36.559Z,8.43
2022-09-23T22:17:06.873Z,8.41
2022-09-23T22:19:40.253Z,8.36
2022-09-23T22:22:13.583Z,8.33
2022-09-23T22:24:46.821Z,8.28
2022-09-23T22:27:17.675Z,8.22
2022-09-23T22:30:04.524Z,8.19
2022-09-23T22:32:41.890Z,8.17
2022-09-23T22:35:19.397Z,8.13
2022-09-23T22:37:48.801Z,8.10
2022-09-23T22:40:17.149Z,8.07
2022-09-23T22:42:45.968Z,8.06
2022-09-23T22:45:14.176Z,8.07
2022-09-23T22:47:45.783Z,8.08
2022-09-23T22:50:14.993Z,8.11
2022-09-23T22:52:43.891Z,8.13
2022-09-23T22:55:12.584Z,8.15
2022-09-23T22:57:41.063Z,8.15
2022-09-23T23:00:12.201Z,8.16
2022-09-23T23:02:40.477Z,8.17
2022-09-23T23:05:08.964Z,8.16
2022-09-23T23:07:37.433Z,8.17
2022-09-23T23:10:10.279Z,8.16
2022-09-23T23:12:39.731Z,8.16
2022-09-23T23:15:11.797Z,8.16
2022-09-23T23:17:41.396Z,8.15
2022-09-23T23:20:09.522Z,8.15
2022-09-23T23:22:37.650Z,8.15
2022-09-23T23:25:06.331Z,8.15
2022-09-23T23:27:34.712Z,8.15
2022-09-23T23:30:02.679Z,8.15
2022-09-23T23:32:31.159Z,8.14
2022-09-23T23:34:59.233Z,8.14
2022-09-23T23:37:30.159Z,8.14
2022-09-23T23:39:58.247Z,8.11
2022-09-23T23:42:27.353Z,8.07
2022-09-23T23:44:55.317Z,8.05
2022-09-23T23:47:24.200Z,8.03
2022-09-23T23:49:52.156Z,7.99
2022-09-23T23:52:20.243Z,7.93
2022-09-23T23:54:48.318Z,7.87
2022-09-23T23:57:16.227Z,7.82
2022-09-23T23:59:44.255Z,7.77
